createdAt,value
2023-05-16T00:00:03.529Z,2.47
2023-05-16T00:01:03.604Z,2.47
2023-05-16T00:02:03.596Z,2.47
2023-05-16T00:03:03.728Z,2.47
2023-05-16T00:04:03.639Z,2.49
2023-05-16T00:05:03.594Z,2.47
2023-05-16T00:06:03.530Z,2.44
2023-05-16T00:07:03.487Z,2.47
2023-05-16T00:08:03.480Z,2.48
2023-05-16T00:09:03.474Z,2.48
2023-05-16T00:10:03.482Z,2.47
2023-05-16T00:11:03.454Z,2.52
2023-05-16T00:12:03.440Z,2.46
2023-05-16T00:13:03.428Z,2.46
2023-05-16T00:14:03.423Z,2.44
2023-05-16T00:15:03.415Z,2.42
2023-05-16T00:16:03.415Z,2.45
2023-05-16T00:17:03.505Z,2.45
2023-05-16T00:18:03.475Z,2.40
2023-05-16T00:19:03.527Z,2.39
2023-05-16T00:20:03.509Z,2.45
2023-05-16T00:21:03.538Z,2.41
2023-05-16T00:22:03.570Z,2.46
2023-05-16T00:23:03.682Z,2.41
2023-05-16T00:24:03.695Z,2.41
2023-05-16T00:25:03.714Z,2.43
2023-05-16T00:26:03.790Z,2.41
2023-05-16T00:27:03.832Z,2.37
2023-05-16T00:28:03.894Z,2.39
2023-05-16T00:29:03.911Z,2.43
2023-05-16T00:30:03.990Z,2.37
2023-05-16T00:31:03.983Z,2.33
2023-05-16T00:32:04.102Z,2.39
2023-05-16T00:33:04.120Z,2.39
2023-05-16T00:34:04.113Z,2.38
2023-05-16T00:35:04.125Z,2.33
2023-05-16T00:36:04.162Z,2.37
2023-05-16T00:37:04.182Z,2.34
2023-05-16T00:38:04.221Z,2.37
2023-05-16T00:39:04.253Z,2.33
2023-05-16T00:40:04.319Z,2.33
2023-05-16T00:41:04.331Z,2.34
2023-05-16T00:42:04.379Z,2.36
2023-05-16T00:43:04.390Z,2.38
2023-05-16T00:44:04.447Z,2.34
2023-05-16T00:45:04.477Z,2.33
2023-05-16T00:46:04.559Z,2.35
2023-05-16T00:47:04.549Z,2.32
2023-05-16T00:48:04.767Z,2.32
2023-05-16T00:49:04.654Z,2.32
2023-05-16T00:50:04.694Z,2.28
2023-05-16T00:51:04.744Z,2.34
2023-05-16T00:52:04.781Z,2.28
2023-05-16T00:53:04.830Z,2.31
2023-05-16T00:54:04.867Z,2.31
2023-05-16T00:55:04.900Z,2.29
2023-05-16T00:56:04.941Z,2.30
2023-05-16T00:57:04.979Z,2.26
2023-05-16T00:58:05.024Z,2.30
2023-05-16T00:59:05.058Z,2.32
2023-05-16T01:00:05.100Z,2.24
2023-05-16T01:01:05.214Z,2.22
2023-05-16T01:02:05.187Z,2.23
2023-05-16T01:03:05.261Z,2.23
2023-05-16T01:04:05.484Z,2.24
2023-05-16T01:05:05.240Z,2.24
2023-05-16T01:06:05.139Z,2.25
2023-05-16T01:07:05.125Z,2.23
2023-05-16T01:08:05.114Z,2.24
2023-05-16T01:09:05.113Z,2.25
2023-05-16T01:10:05.201Z,2.27
2023-05-16T01:11:05.100Z,2.27
2023-05-16T01:12:05.084Z,2.25
2023-05-16T01:13:05.057Z,2.24
2023-05-16T01:14:05.048Z,2.24
2023-05-16T01:15:05.078Z,2.23
2023-05-16T01:16:05.120Z,2.27
2023-05-16T01:17:05.110Z,2.23
2023-05-16T01:18:05.165Z,2.25
2023-05-16T01:19:05.219Z,2.21
2023-05-16T01:20:05.274Z,2.21
2023-05-16T01:21:05.202Z,2.22
2023-05-16T01:22:05.175Z,2.22
2023-05-16T01:23:05.173Z,2.21
2023-05-16T01:24:05.177Z,2.22
2023-05-16T01:25:05.152Z,2.24
2023-05-16T01:26:05.157Z,2.26
2023-05-16T01:27:05.147Z,2.24
2023-05-16T01:28:05.138Z,2.22
2023-05-16T01:29:05.131Z,2.25
2023-05-16T01:30:05.130Z,2.18
2023-05-16T01:31:05.216Z,2.15
2023-05-16T01:32:05.198Z,2.16
2023-05-16T01:33:05.220Z,2.17
2023-05-16T01:34:05.109Z,2.18
2023-05-16T01:35:05.115Z,2.19
2023-05-16T01:36:05.102Z,2.20
2023-05-16T01:37:05.090Z,2.20
2023-05-16T01:38:05.089Z,2.18
2023-05-16T01:39:05.082Z,2.21
2023-05-16T01:40:05.070Z,2.19
2023-05-16T01:41:05.081Z,2.21
2023-05-16T01:42:05.055Z,2.18
2023-05-16T01:43:05.086Z,2.20
2023-05-16T01:44:05.124Z,2.16
2023-05-16T01:45:05.140Z,2.16
2023-05-16T01:46:05.205Z,2.20
2023-05-16T01:47:05.439Z,2.20
2023-05-16T01:48:05.243Z,2.17
2023-05-16T01:49:05.176Z,2.20
2023-05-16T01:50:05.161Z,2.22
2023-05-16T01:51:05.160Z,2.19
2023-05-16T01:52:05.153Z,2.16
2023-05-16T01:53:05.149Z,2.18
2023-05-16T01:54:05.134Z,2.14
2023-05-16T01:55:05.155Z,2.17
2023-05-16T01:56:05.142Z,2.17
2023-05-16T01:57:05.126Z,2.13
2023-05-16T01:58:05.135Z,2.17
2023-05-16T01:59:05.234Z,2.16
2023-05-16T02:00:05.205Z,2.16
2023-05-16T02:01:05.228Z,2.17
2023-05-16T02:02:05.185Z,2.15
2023-05-16T02:03:05.267Z,2.16
2023-05-16T02:04:05.245Z,2.14
2023-05-16T02:05:05.208Z,2.14
2023-05-16T02:06:05.216Z,2.14
2023-05-16T02:07:05.169Z,2.15
2023-05-16T02:08:05.161Z,2.16
2023-05-16T02:09:05.168Z,2.15
2023-05-16T02:10:05.152Z,2.17
2023-05-16T02:11:05.154Z,2.19
2023-05-16T02:12:05.164Z,2.12
2023-05-16T02:13:05.197Z,2.12
2023-05-16T02:14:05.219Z,2.16
2023-05-16T02:15:05.147Z,2.16
2023-05-16T02:16:05.146Z,2.16
2023-05-16T02:17:05.198Z,2.15
2023-05-16T02:18:05.200Z,2.15
2023-05-16T02:19:05.187Z,2.11
2023-05-16T02:20:05.118Z,2.16
2023-05-16T02:21:05.103Z,2.14
2023-05-16T02:22:05.099Z,2.11
2023-05-16T02:23:05.136Z,2.09
2023-05-16T02:24:05.175Z,2.11
2023-05-16T02:25:05.246Z,2.06
2023-05-16T02:26:05.308Z,2.08
2023-05-16T02:27:05.346Z,2.11
2023-05-16T02:28:05.389Z,2.11
2023-05-16T02:29:05.459Z,2.06
2023-05-16T02:30:05.509Z,2.08
2023-05-16T02:31:05.631Z,2.07
2023-05-16T02:32:05.622Z,2.05
2023-05-16T02:33:05.738Z,2.05
2023-05-16T02:34:05.739Z,2.07
2023-05-16T02:35:05.773Z,2.10
2023-05-16T02:36:05.856Z,2.09
2023-05-16T02:37:05.895Z,2.05
2023-05-16T02:38:05.941Z,2.07
2023-05-16T02:39:06.003Z,2.05
2023-05-16T02:40:06.055Z,2.06
2023-05-16T02:41:06.147Z,2.05
2023-05-16T02:42:06.181Z,2.04
2023-05-16T02:43:06.238Z,2.02
2023-05-16T02:44:06.285Z,2.01
2023-05-16T02:45:06.339Z,2.03
2023-05-16T02:46:06.420Z,2.06
2023-05-16T02:47:06.437Z,2.07
2023-05-16T02:48:06.520Z,2.00
2023-05-16T02:49:06.574Z,1.97
2023-05-16T02:50:06.604Z,1.77
2023-05-16T02:51:06.663Z,1.48
2023-05-16T02:52:06.741Z,1.26
2023-05-16T02:53:06.805Z,1.11
2023-05-16T02:54:06.857Z,0.97
2023-05-16T02:56:06.925Z,0.78
2023-05-16T02:57:08.669Z,0.71
2023-05-16T02:58:06.925Z,0.66
2023-05-16T02:59:06.920Z,0.59
2023-05-16T03:00:06.921Z,0.55
2023-05-16T03:01:06.955Z,0.49
2023-05-16T03:02:06.947Z,0.46
2023-05-16T03:03:06.975Z,0.50
2023-05-16T03:04:07.055Z,0.50
2023-05-16T03:05:06.893Z,0.50
2023-05-16T03:06:06.905Z,0.50
2023-05-16T03:07:06.910Z,0.50
2023-05-16T03:08:06.910Z,0.50
2023-05-16T03:09:06.934Z,0.51
2023-05-16T03:10:06.956Z,0.50
2023-05-16T03:11:06.954Z,0.49
2023-05-16T03:12:07.296Z,0.47
2023-05-16T03:13:06.945Z,0.45
2023-05-16T03:14:06.972Z,0.42
2023-05-16T03:15:06.966Z,0.41
2023-05-16T03:16:06.984Z,0.48
2023-05-16T03:17:06.985Z,0.50
2023-05-16T03:18:07.000Z,0.50
2023-05-16T03:19:07.058Z,0.50
2023-05-16T03:20:06.985Z,0.50
2023-05-16T03:21:06.991Z,0.51
2023-05-16T03:22:07.003Z,0.50
2023-05-16T03:23:07.002Z,0.50
2023-05-16T03:24:07.049Z,0.50
2023-05-16T03:25:07.026Z,0.50
2023-05-16T03:26:07.032Z,0.50
2023-05-16T03:27:07.075Z,0.50
2023-05-16T03:28:07.042Z,0.51
2023-05-16T03:29:07.090Z,0.51
2023-05-16T03:30:07.065Z,0.51
2023-05-16T03:31:07.155Z,0.50
2023-05-16T03:32:07.177Z,0.50
2023-05-16T03:33:07.161Z,0.49
2023-05-16T03:34:07.085Z,0.48
2023-05-16T03:35:07.100Z,0.48
2023-05-16T03:36:07.154Z,0.50
2023-05-16T03:37:07.104Z,0.51
2023-05-16T03:38:07.110Z,0.51
2023-05-16T03:39:07.141Z,0.51
2023-05-16T03:40:07.118Z,0.51
2023-05-16T03:41:07.152Z,0.51
2023-05-16T03:42:07.131Z,0.52
2023-05-16T03:43:07.147Z,0.51
2023-05-16T03:44:07.203Z,0.51
2023-05-16T03:45:07.236Z,0.52
2023-05-16T03:46:07.332Z,0.50
2023-05-16T03:47:07.323Z,0.51
2023-05-16T03:48:07.377Z,0.50
2023-05-16T03:49:07.402Z,0.51
2023-05-16T03:50:07.488Z,0.52
2023-05-16T03:51:07.524Z,0.52
2023-05-16T03:52:07.576Z,0.52
2023-05-16T03:53:07.623Z,0.52
2023-05-16T03:54:07.680Z,0.51
2023-05-16T03:55:07.718Z,0.52
2023-05-16T03:56:07.772Z,0.51
2023-05-16T03:57:07.829Z,0.51
2023-05-16T03:58:07.906Z,0.52
2023-05-16T03:59:07.935Z,0.51
2023-05-16T04:00:08.005Z,0.52
2023-05-16T04:01:08.057Z,0.52
2023-05-16T04:02:08.190Z,0.50
2023-05-16T04:03:08.185Z,0.51
2023-05-16T04:04:08.204Z,0.52
2023-05-16T04:05:08.389Z,0.51
2023-05-16T04:06:08.391Z,0.50
2023-05-16T04:07:08.380Z,0.50
2023-05-16T04:08:08.429Z,0.53
2023-05-16T04:09:08.512Z,0.52
2023-05-16T04:10:08.493Z,0.52
2023-05-16T04:11:08.525Z,0.52
2023-05-16T04:12:08.517Z,0.52
2023-05-16T04:13:08.538Z,0.52
2023-05-16T04:14:08.601Z,0.52
2023-05-16T04:15:08.536Z,0.53
2023-05-16T04:16:08.561Z,0.54
2023-05-16T04:17:08.745Z,0.54
2023-05-16T04:18:08.605Z,0.54
2023-05-16T04:19:08.688Z,0.56
2023-05-16T04:20:08.594Z,0.56
2023-05-16T04:21:08.651Z,0.59
2023-05-16T04:22:08.710Z,0.58
2023-05-16T04:23:08.795Z,0.57
2023-05-16T04:24:08.851Z,0.57
2023-05-16T04:25:08.875Z,0.57
2023-05-16T04:26:08.887Z,0.57
2023-05-16T04:27:08.909Z,0.57
2023-05-16T04:28:08.924Z,0.57
2023-05-16T04:29:08.937Z,0.58
2023-05-16T04:30:08.961Z,0.57
2023-05-16T04:31:09.055Z,0.56
2023-05-16T04:32:08.969Z,0.58
2023-05-16T04:33:09.031Z,0.60
2023-05-16T04:34:09.001Z,0.59
2023-05-16T04:35:09.006Z,0.58
2023-05-16T04:36:09.083Z,0.58
2023-05-16T04:37:09.130Z,0.57
2023-05-16T04:38:09.210Z,0.55
2023-05-16T04:39:09.282Z,0.56
2023-05-16T04:40:09.360Z,0.56
2023-05-16T04:41:09.424Z,0.58
2023-05-16T04:42:09.501Z,0.56
2023-05-16T04:43:09.588Z,0.55
2023-05-16T04:44:09.571Z,0.56
2023-05-16T04:45:09.585Z,0.56
2023-05-16T04:46:09.651Z,0.56
2023-05-16T04:47:09.598Z,0.57
2023-05-16T04:48:09.660Z,0.57
2023-05-16T04:49:09.657Z,0.58
2023-05-16T04:50:09.662Z,0.58
2023-05-16T04:51:09.663Z,0.58
2023-05-16T04:52:09.689Z,0.58
2023-05-16T04:53:09.710Z,0.58
2023-05-16T04:54:09.781Z,0.59
2023-05-16T04:55:09.865Z,0.58
2023-05-16T04:56:09.972Z,0.59
2023-05-16T04:57:10.047Z,0.59
2023-05-16T04:58:10.116Z,0.59
2023-05-16T04:59:10.208Z,0.59
2023-05-16T05:00:10.294Z,0.58
2023-05-16T05:01:10.430Z,0.60
2023-05-16T05:02:10.542Z,0.58
2023-05-16T05:03:10.615Z,0.58
2023-05-16T05:04:10.625Z,0.58
2023-05-16T05:05:10.771Z,0.57
2023-05-16T05:06:10.821Z,0.57
2023-05-16T05:07:10.896Z,0.57
2023-05-16T05:08:10.935Z,0.56
2023-05-16T05:09:11.016Z,0.57
2023-05-16T05:10:11.046Z,0.57
2023-05-16T05:11:11.090Z,0.56
2023-05-16T05:12:11.110Z,0.56
2023-05-16T05:13:11.184Z,0.55
2023-05-16T05:14:11.255Z,0.56
2023-05-16T05:15:11.290Z,0.56
2023-05-16T05:16:11.279Z,0.56
2023-05-16T05:17:11.326Z,0.55
2023-05-16T05:18:11.489Z,0.54
2023-05-16T05:19:11.418Z,0.55
2023-05-16T05:20:11.385Z,0.55
2023-05-16T05:21:11.392Z,0.55
2023-05-16T05:22:11.398Z,0.61
2023-05-16T05:23:11.473Z,0.65
2023-05-16T05:24:11.514Z,0.84
2023-05-16T05:25:11.585Z,0.93
2023-05-16T05:26:11.664Z,0.96
2023-05-16T05:27:11.735Z,0.99
2023-05-16T05:28:11.814Z,1.08
2023-05-16T05:29:11.872Z,1.12
2023-05-16T05:30:11.965Z,1.18
2023-05-16T05:31:12.031Z,1.23
2023-05-16T05:32:12.230Z,1.27
2023-05-16T05:33:12.149Z,1.34
2023-05-16T05:34:12.206Z,1.50
2023-05-16T05:35:12.234Z,1.66
2023-05-16T05:36:12.290Z,1.76
2023-05-16T05:37:12.312Z,1.89
2023-05-16T05:38:12.355Z,1.97
2023-05-16T05:39:12.415Z,2.05
2023-05-16T05:40:12.428Z,1.97
2023-05-16T05:41:12.530Z,2.05
2023-05-16T05:42:12.487Z,2.12
2023-05-16T05:43:12.522Z,2.31
2023-05-16T05:44:12.632Z,2.30
2023-05-16T05:45:12.562Z,2.49
2023-05-16T05:46:12.628Z,2.47
2023-05-16T05:47:12.618Z,2.19
2023-05-16T05:48:12.766Z,1.60
2023-05-16T05:49:12.670Z,1.58
2023-05-16T05:50:12.715Z,1.33
2023-05-16T05:51:12.711Z,1.49
2023-05-16T05:52:12.719Z,1.57
2023-05-16T05:53:12.721Z,1.91
2023-05-16T05:54:12.732Z,2.29
2023-05-16T05:55:12.756Z,2.30
2023-05-16T05:56:12.753Z,2.35
2023-05-16T05:57:12.751Z,2.44
2023-05-16T05:58:12.758Z,2.56
2023-05-16T05:59:12.729Z,2.86
2023-05-16T06:00:12.844Z,2.95
2023-05-16T06:01:12.754Z,3.27
2023-05-16T06:02:12.824Z,3.51
2023-05-16T06:03:12.772Z,3.85
2023-05-16T06:04:12.750Z,3.99
2023-05-16T06:05:12.796Z,4.08
2023-05-16T06:06:12.813Z,4.20
2023-05-16T06:07:12.767Z,4.27
2023-05-16T06:08:12.819Z,4.29
2023-05-16T06:09:12.762Z,4.39
2023-05-16T06:10:12.840Z,4.49
2023-05-16T06:11:12.874Z,4.59
2023-05-16T06:12:12.905Z,4.74
2023-05-16T06:13:12.908Z,4.92
2023-05-16T06:14:12.915Z,5.05
2023-05-16T06:15:12.971Z,4.99
2023-05-16T06:16:13.013Z,5.29
2023-05-16T06:17:13.046Z,5.35
2023-05-16T06:18:13.098Z,5.45
2023-05-16T06:19:13.085Z,5.76
2023-05-16T06:20:13.039Z,5.77
2023-05-16T06:21:13.130Z,5.85
2023-05-16T06:22:13.061Z,6.00
2023-05-16T06:23:13.041Z,6.09
2023-05-16T06:24:13.034Z,6.19
2023-05-16T06:25:13.031Z,6.40
2023-05-16T06:26:13.011Z,6.32
2023-05-16T06:27:13.013Z,6.38
2023-05-16T06:28:13.003Z,6.36
2023-05-16T06:29:13.066Z,5.90
2023-05-16T06:30:13.130Z,5.92
2023-05-16T06:31:13.367Z,5.62
2023-05-16T06:32:13.623Z,5.62
2023-05-16T06:33:13.337Z,5.82
2023-05-16T06:34:13.399Z,5.87
2023-05-16T06:35:13.468Z,6.29
2023-05-16T06:36:13.452Z,6.30
2023-05-16T06:37:13.444Z,6.29
2023-05-16T06:38:13.428Z,6.30
2023-05-16T06:39:13.433Z,6.31
2023-05-16T06:40:13.471Z,6.34
2023-05-16T06:41:13.456Z,5.47
2023-05-16T06:42:13.400Z,4.68
2023-05-16T06:43:13.432Z,4.19
2023-05-16T06:44:13.438Z,3.31
2023-05-16T06:45:13.433Z,2.72
2023-05-16T06:46:13.495Z,2.71
2023-05-16T06:47:13.396Z,2.66
2023-05-16T06:48:13.488Z,2.67
2023-05-16T06:49:13.409Z,2.81
2023-05-16T06:50:13.400Z,2.99
2023-05-16T06:51:13.419Z,3.17
2023-05-16T06:52:13.446Z,3.22
2023-05-16T06:53:13.378Z,3.32
2023-05-16T06:54:13.374Z,3.34
2023-05-16T06:55:13.371Z,3.43
2023-05-16T06:56:13.343Z,3.68
2023-05-16T06:57:13.311Z,3.97
2023-05-16T06:58:13.309Z,4.23
2023-05-16T06:59:13.326Z,4.57
2023-05-16T07:00:13.404Z,4.76
2023-05-16T07:01:13.438Z,4.26
2023-05-16T07:02:13.311Z,3.84
2023-05-16T07:03:13.428Z,3.83
2023-05-16T07:04:13.312Z,3.56
2023-05-16T07:05:13.333Z,3.29
2023-05-16T07:06:13.233Z,3.16
2023-05-16T07:07:13.202Z,3.23
2023-05-16T07:08:13.243Z,3.21
2023-05-16T07:09:13.231Z,3.37
2023-05-16T07:10:13.178Z,3.47
2023-05-16T07:11:13.243Z,3.47
2023-05-16T07:12:13.205Z,3.43
2023-05-16T07:13:13.186Z,3.19
2023-05-16T07:14:13.204Z,2.95
2023-05-16T07:15:13.297Z,3.27
2023-05-16T07:16:13.340Z,3.13
2023-05-16T07:17:13.122Z,3.26
2023-05-16T07:18:13.190Z,3.26
2023-05-16T07:19:13.216Z,3.28
2023-05-16T07:20:13.137Z,3.39
2023-05-16T07:21:13.103Z,3.54
2023-05-16T07:22:13.060Z,3.84
2023-05-16T07:23:13.058Z,3.88
2023-05-16T07:24:13.071Z,3.77
2023-05-16T07:25:13.154Z,3.23
2023-05-16T07:26:13.034Z,2.87
2023-05-16T07:27:13.137Z,2.82
2023-05-16T07:28:13.144Z,2.87
2023-05-16T07:29:13.178Z,2.73
2023-05-16T07:30:13.292Z,2.58
2023-05-16T07:31:13.336Z,2.62
2023-05-16T07:32:13.361Z,2.77
2023-05-16T07:33:13.580Z,2.90
2023-05-16T07:34:13.402Z,2.98
2023-05-16T07:35:13.464Z,2.83
2023-05-16T07:36:17.034Z,2.56
2023-05-16T07:37:13.405Z,2.30
2023-05-16T07:38:13.438Z,2.22
2023-05-16T07:39:13.375Z,2.32
2023-05-16T07:40:13.392Z,2.37
2023-05-16T07:41:13.449Z,2.36
2023-05-16T07:42:13.366Z,2.69
2023-05-16T07:43:13.389Z,2.74
2023-05-16T07:44:13.377Z,2.96
2023-05-16T07:45:13.347Z,3.58
2023-05-16T07:46:13.362Z,4.07
2023-05-16T07:47:13.327Z,4.09
2023-05-16T07:48:13.369Z,4.24
2023-05-16T07:49:13.323Z,4.52
2023-05-16T07:50:13.313Z,5.23
2023-05-16T07:51:13.285Z,6.39
2023-05-16T07:52:13.292Z,7.11
2023-05-16T07:53:13.286Z,7.36
2023-05-16T07:54:13.306Z,7.79
2023-05-16T07:55:13.254Z,8.25
2023-05-16T07:56:13.244Z,8.30
2023-05-16T07:57:13.212Z,8.54
2023-05-16T07:58:13.213Z,8.90
2023-05-16T07:59:13.324Z,8.88
2023-05-16T08:00:13.327Z,9.22
2023-05-16T08:01:13.336Z,9.26
2023-05-16T08:02:13.391Z,9.52
2023-05-16T08:03:13.448Z,9.30
2023-05-16T08:04:13.467Z,9.61
2023-05-16T08:05:13.521Z,9.57
2023-05-16T08:06:13.603Z,9.66
2023-05-16T08:07:13.597Z,9.67
2023-05-16T08:08:13.657Z,9.72
2023-05-16T08:09:13.534Z,9.73
2023-05-16T08:10:13.821Z,9.72
2023-05-16T08:11:13.538Z,9.84
2023-05-16T08:12:13.515Z,9.68
2023-05-16T08:13:13.562Z,9.70
2023-05-16T08:14:13.563Z,9.75
2023-05-16T08:15:13.504Z,9.81
2023-05-16T08:16:13.510Z,9.77
2023-05-16T08:17:13.500Z,9.78
2023-05-16T08:18:13.608Z,8.79
2023-05-16T08:19:13.637Z,8.11
2023-05-16T08:20:13.671Z,7.08
2023-05-16T08:21:13.642Z,6.77
2023-05-16T08:22:13.634Z,4.77
2023-05-16T08:23:14.209Z,3.70
2023-05-16T08:24:13.652Z,3.23
2023-05-16T08:25:13.594Z,2.82
2023-05-16T08:26:13.616Z,2.53
2023-05-16T08:27:13.602Z,2.26
2023-05-16T08:28:13.738Z,2.08
2023-05-16T08:29:13.591Z,1.93
2023-05-16T08:30:13.630Z,1.76
2023-05-16T08:31:13.614Z,1.68
2023-05-16T08:32:13.582Z,1.55
2023-05-16T08:33:13.712Z,1.50
2023-05-16T08:34:13.658Z,1.42
2023-05-16T08:35:13.726Z,1.35
2023-05-16T08:36:13.794Z,1.33
2023-05-16T08:37:15.390Z,1.22
2023-05-16T08:38:13.785Z,1.20
2023-05-16T08:39:13.796Z,1.15
2023-05-16T08:40:13.792Z,1.12
2023-05-16T08:41:13.764Z,1.10
2023-05-16T08:42:13.863Z,1.06
2023-05-16T08:43:13.747Z,0.97
2023-05-16T08:44:13.736Z,1.00
2023-05-16T08:45:13.746Z,0.95
2023-05-16T08:46:13.768Z,0.92
2023-05-16T08:47:13.830Z,0.90
2023-05-16T08:48:13.815Z,0.88
2023-05-16T08:49:13.736Z,0.86
2023-05-16T08:50:13.762Z,0.89
2023-05-16T08:51:13.762Z,1.09
2023-05-16T08:52:13.767Z,1.10
2023-05-16T08:53:13.712Z,1.16
2023-05-16T08:54:13.749Z,1.32
2023-05-16T08:55:13.733Z,1.69
2023-05-16T08:56:13.844Z,2.33
2023-05-16T08:57:13.739Z,2.53
2023-05-16T08:58:13.731Z,2.69
2023-05-16T08:59:13.761Z,2.83
2023-05-16T09:00:13.685Z,3.06
2023-05-16T09:01:13.870Z,3.07
2023-05-16T09:02:13.699Z,3.07
2023-05-16T09:03:13.724Z,3.14
2023-05-16T09:04:13.717Z,3.30
2023-05-16T09:05:13.723Z,3.59
2023-05-16T09:06:13.701Z,4.13
2023-05-16T09:07:13.677Z,4.21
2023-05-16T09:08:13.884Z,4.39
2023-05-16T09:09:13.730Z,4.52
2023-05-16T09:10:14.021Z,4.85
2023-05-16T09:11:13.860Z,4.92
2023-05-16T09:12:13.902Z,5.14
2023-05-16T09:13:13.971Z,5.17
2023-05-16T09:14:14.037Z,5.47
2023-05-16T09:15:14.112Z,5.55
2023-05-16T09:16:14.154Z,5.67
2023-05-16T09:17:14.604Z,5.92
2023-05-16T09:18:14.350Z,6.19
2023-05-16T09:19:14.436Z,6.41
2023-05-16T09:20:14.456Z,6.43
2023-05-16T09:21:14.501Z,6.76
2023-05-16T09:22:14.586Z,6.75
2023-05-16T09:23:14.613Z,6.90
2023-05-16T09:24:14.681Z,7.38
2023-05-16T09:25:29.500Z,7.42
2023-05-16T09:26:15.748Z,7.43
2023-05-16T09:27:14.713Z,7.46
2023-05-16T09:28:14.756Z,7.60
2023-05-16T09:29:14.736Z,7.80
2023-05-16T09:30:14.716Z,8.15
2023-05-16T09:31:14.702Z,8.23
2023-05-16T09:32:14.681Z,8.54
2023-05-16T09:33:14.682Z,8.47
2023-05-16T09:34:14.700Z,8.78
2023-05-16T09:35:14.777Z,8.86
2023-05-16T09:36:14.828Z,8.75
2023-05-16T09:37:14.886Z,9.10
2023-05-16T09:38:14.941Z,9.40
2023-05-16T09:39:14.998Z,9.40
2023-05-16T09:40:15.008Z,9.41
2023-05-16T09:41:15.013Z,9.46
2023-05-16T09:42:15.004Z,9.43
2023-05-16T09:43:15.063Z,9.44
2023-05-16T09:44:15.027Z,9.51
2023-05-16T09:45:14.992Z,9.64
2023-05-16T09:46:15.056Z,9.99
2023-05-16T09:47:14.977Z,10.19
2023-05-16T09:48:15.046Z,9.77
2023-05-16T09:49:14.962Z,9.95
2023-05-16T09:50:17.076Z,9.91
2023-05-16T09:51:14.960Z,9.91
2023-05-16T09:52:15.001Z,9.76
2023-05-16T09:53:15.042Z,9.78
2023-05-16T09:54:15.075Z,10.09
2023-05-16T09:55:15.125Z,9.51
2023-05-16T09:56:15.200Z,9.66
2023-05-16T09:57:15.227Z,9.91
2023-05-16T09:58:15.271Z,9.75
2023-05-16T09:59:15.336Z,9.69
2023-05-16T10:00:15.496Z,9.49
2023-05-16T10:01:15.477Z,9.13
2023-05-16T10:02:15.615Z,9.01
2023-05-16T10:03:15.653Z,8.66
2023-05-16T10:04:15.818Z,8.28
2023-05-16T10:05:15.717Z,8.18
2023-05-16T10:06:15.770Z,8.01
2023-05-16T10:07:16.254Z,7.70
2023-05-16T10:08:15.885Z,7.64
2023-05-16T10:09:15.942Z,7.82
2023-05-16T10:10:16.004Z,7.57
2023-05-16T10:11:16.102Z,7.19
2023-05-16T10:12:16.150Z,7.29
2023-05-16T10:13:16.220Z,7.26
2023-05-16T10:14:16.266Z,7.24
2023-05-16T10:15:16.354Z,7.21
2023-05-16T10:16:16.670Z,7.21
2023-05-16T10:17:16.456Z,7.07
2023-05-16T10:18:16.518Z,6.97
2023-05-16T10:19:16.640Z,6.89
2023-05-16T10:20:16.792Z,6.90
2023-05-16T10:21:16.672Z,6.96
2023-05-16T10:22:16.723Z,6.94
2023-05-16T10:23:16.805Z,7.03
2023-05-16T10:24:16.827Z,7.03
2023-05-16T10:25:16.826Z,7.03
2023-05-16T10:26:16.832Z,7.03
2023-05-16T10:27:19.150Z,7.08
2023-05-16T10:28:16.977Z,7.13
2023-05-16T10:29:17.005Z,7.23
2023-05-16T10:30:17.018Z,7.24
2023-05-16T10:31:17.078Z,7.25
2023-05-16T10:32:17.012Z,7.31
2023-05-16T10:33:17.094Z,7.33
2023-05-16T10:34:16.975Z,7.56
2023-05-16T10:35:16.986Z,7.33
2023-05-16T10:36:16.974Z,7.35
2023-05-16T10:37:16.960Z,7.38
2023-05-16T10:38:16.936Z,7.41
2023-05-16T10:39:16.936Z,7.44
2023-05-16T10:40:17.080Z,7.56
2023-05-16T10:41:16.932Z,7.47
2023-05-16T10:42:16.904Z,7.43
2023-05-16T10:43:16.890Z,7.52
2023-05-16T10:44:16.898Z,7.48
2023-05-16T10:45:16.946Z,7.51
2023-05-16T10:46:17.090Z,7.49
2023-05-16T10:47:17.056Z,7.63
2023-05-16T10:48:17.198Z,7.66
2023-05-16T10:49:17.172Z,7.68
2023-05-16T10:50:17.285Z,7.85
2023-05-16T10:51:17.269Z,7.61
2023-05-16T10:52:17.311Z,8.16
2023-05-16T10:53:17.358Z,8.09
2023-05-16T10:54:17.392Z,8.16
2023-05-16T10:55:17.428Z,8.35
2023-05-16T10:56:17.485Z,8.34
2023-05-16T10:57:17.530Z,8.28
2023-05-16T10:58:17.596Z,8.54
2023-05-16T10:59:17.641Z,8.65
2023-05-16T11:00:17.748Z,8.55
2023-05-16T11:01:17.837Z,9.04
2023-05-16T11:02:17.864Z,8.82
2023-05-16T11:03:17.969Z,9.04
2023-05-16T11:04:17.953Z,8.79
2023-05-16T11:05:17.995Z,9.12
2023-05-16T11:06:19.554Z,9.17
2023-05-16T11:07:18.040Z,9.10
2023-05-16T11:08:18.057Z,9.41
2023-05-16T11:09:18.033Z,9.62
2023-05-16T11:10:18.004Z,9.67
2023-05-16T11:11:18.012Z,9.71
2023-05-16T11:12:17.994Z,9.77
2023-05-16T11:13:17.988Z,9.65
2023-05-16T11:14:18.017Z,9.69
2023-05-16T11:15:17.973Z,9.79
2023-05-16T11:16:17.982Z,9.82
2023-05-16T11:17:18.031Z,9.89
2023-05-16T11:18:17.999Z,10.29
2023-05-16T11:19:18.018Z,10.90
2023-05-16T11:20:17.953Z,12.78
2023-05-16T11:21:17.939Z,13.70
2023-05-16T11:22:17.926Z,14.07
2023-05-16T11:23:17.919Z,14.90
2023-05-16T11:24:18.939Z,15.82
2023-05-16T11:25:17.914Z,18.20
2023-05-16T11:26:17.947Z,19.23
2023-05-16T11:27:17.925Z,18.91
2023-05-16T11:28:17.891Z,18.97
2023-05-16T11:29:17.902Z,17.76
2023-05-16T11:30:17.893Z,18.21
2023-05-16T11:31:17.910Z,17.79
2023-05-16T11:32:17.853Z,18.44
2023-05-16T11:33:17.895Z,17.88
2023-05-16T11:34:17.815Z,18.13
2023-05-16T11:35:17.824Z,17.62
2023-05-16T11:36:17.859Z,17.48
2023-05-16T11:37:17.799Z,17.33
2023-05-16T11:38:17.795Z,16.95
2023-05-16T11:39:17.770Z,16.39
2023-05-16T11:40:17.803Z,16.28
2023-05-16T11:41:17.826Z,15.86
2023-05-16T11:42:17.853Z,15.68
2023-05-16T11:43:17.906Z,15.42
2023-05-16T11:44:18.854Z,15.08
2023-05-16T11:45:18.034Z,15.00
2023-05-16T11:46:18.044Z,14.71
2023-05-16T11:47:18.053Z,14.13
2023-05-16T11:48:28.546Z,14.13
2023-05-16T11:49:19.080Z,14.14
2023-05-16T11:50:18.033Z,13.97
2023-05-16T11:51:18.014Z,13.40
2023-05-16T11:52:18.018Z,13.26
2023-05-16T11:53:18.014Z,13.24
2023-05-16T11:54:17.999Z,13.18
2023-05-16T11:55:28.183Z,13.06
2023-05-16T11:56:18.982Z,13.08
2023-05-16T11:57:17.967Z,13.08
2023-05-16T11:58:17.975Z,13.10
2023-05-16T11:59:17.955Z,12.74
2023-05-16T12:00:18.021Z,13.01
2023-05-16T12:01:17.939Z,12.86
2023-05-16T12:02:17.925Z,15.94
2023-05-16T12:03:18.013Z,20.72
2023-05-16T12:04:18.171Z,18.91
2023-05-16T12:05:17.999Z,18.31
2023-05-16T12:06:17.903Z,19.01
2023-05-16T12:07:17.877Z,19.06
2023-05-16T12:08:17.980Z,19.35
2023-05-16T12:09:18.700Z,20.00
2023-05-16T12:10:17.875Z,22.07
2023-05-16T12:11:17.851Z,25.03
2023-05-16T12:12:17.839Z,26.62
2023-05-16T12:13:20.029Z,25.78
2023-05-16T12:14:17.823Z,27.47
2023-05-16T12:15:17.813Z,27.83
2023-05-16T12:16:17.878Z,27.31
2023-05-16T12:17:17.796Z,27.04
2023-05-16T12:18:17.849Z,27.03
2023-05-16T12:19:17.819Z,26.45
2023-05-16T12:20:17.777Z,26.24
2023-05-16T12:21:17.777Z,26.32
2023-05-16T12:22:17.753Z,25.30
2023-05-16T12:23:17.740Z,25.64
2023-05-16T12:24:17.753Z,25.13
2023-05-16T12:25:17.735Z,24.13
2023-05-16T12:26:17.713Z,23.10
2023-05-16T12:27:17.696Z,23.31
2023-05-16T12:28:17.697Z,23.40
2023-05-16T12:29:17.691Z,22.31
2023-05-16T12:30:17.694Z,22.58
2023-05-16T12:31:30.177Z,21.54
2023-05-16T12:32:18.712Z,21.58
2023-05-16T12:33:17.706Z,21.55
2023-05-16T12:34:17.657Z,21.20
2023-05-16T12:35:17.633Z,20.77
2023-05-16T12:36:17.685Z,19.47
2023-05-16T12:37:17.647Z,19.09
2023-05-16T12:38:17.791Z,18.90
2023-05-16T12:39:17.631Z,18.62
2023-05-16T12:40:17.670Z,18.96
2023-05-16T12:41:17.625Z,18.62
2023-05-16T12:42:17.614Z,18.43
2023-05-16T12:43:17.645Z,18.50
2023-05-16T12:44:17.628Z,18.36
2023-05-16T12:45:17.611Z,18.38
2023-05-16T12:46:17.743Z,18.44
2023-05-16T12:47:17.602Z,18.52
2023-05-16T12:48:17.640Z,18.57
2023-05-16T12:49:17.596Z,18.97
2023-05-16T12:50:17.592Z,18.40
2023-05-16T12:51:17.626Z,18.53
2023-05-16T12:52:17.633Z,18.68
2023-05-16T12:53:17.593Z,18.62
2023-05-16T12:54:17.587Z,18.65
2023-05-16T12:55:17.635Z,18.21
2023-05-16T12:56:17.689Z,18.51
2023-05-16T12:57:17.705Z,18.17
2023-05-16T12:58:17.860Z,18.65
2023-05-16T12:59:17.799Z,18.24
2023-05-16T13:00:17.809Z,18.74
2023-05-16T13:01:17.904Z,18.56
2023-05-16T13:02:17.880Z,18.05
2023-05-16T13:03:18.003Z,18.44
2023-05-16T13:04:18.002Z,18.29
2023-05-16T13:05:17.975Z,18.20
2023-05-16T13:06:18.000Z,18.38
2023-05-16T13:07:18.066Z,17.93
2023-05-16T13:08:18.101Z,17.98
2023-05-16T13:09:18.188Z,17.96
2023-05-16T13:10:18.209Z,18.11
2023-05-16T13:11:18.272Z,17.78
2023-05-16T13:12:18.441Z,17.90
2023-05-16T13:13:28.784Z,17.63
2023-05-16T13:14:19.412Z,17.67
2023-05-16T13:15:18.381Z,17.68